createdAt,value
2022-08-14T00:02:05.489Z,24.54
2022-08-14T00:04:41.708Z,24.65
2022-08-14T00:07:11.000Z,24.68
2022-08-14T00:09:55.328Z,24.68
2022-08-14T00:12:33.497Z,24.65
2022-08-14T00:15:43.322Z,24.73
2022-08-14T00:18:14.355Z,24.75
2022-08-14T00:20:43.387Z,24.74
2022-08-14T00:23:16.650Z,24.75
2022-08-14T00:25:53.713Z,24.64
2022-08-14T00:28:35.661Z,24.75
2022-08-14T00:31:04.633Z,24.80
2022-08-14T00:33:51.048Z,24.79
2022-08-14T00:36:47.823Z,24.78
2022-08-14T00:39:09.622Z,24.74
2022-08-14T00:41:36.887Z,24.51
2022-08-14T00:44:07.211Z,24.44
2022-08-14T00:46:36.909Z,24.38
2022-08-14T00:49:05.871Z,24.35
2022-08-14T00:51:38.249Z,24.38
2022-08-14T00:54:16.890Z,24.39
2022-08-14T00:56:55.555Z,24.35
2022-08-14T00:59:26.302Z,24.20
2022-08-14T01:01:58.211Z,24.27
2022-08-14T01:04:37.821Z,24.36
2022-08-14T01:07:19.760Z,24.33
2022-08-14T01:09:49.800Z,24.35
2022-08-14T01:12:26.757Z,24.33
2022-08-14T01:15:02.179Z,24.26
2022-08-14T01:17:51.998Z,24.19
2022-08-14T01:20:40.966Z,23.83
2022-08-14T01:23:16.072Z,23.71
2022-08-14T01:25:46.214Z,23.64
2022-08-14T01:28:47.018Z,23.45
2022-08-14T01:31:01.769Z,23.50
2022-08-14T01:33:30.080Z,23.43
2022-08-14T01:36:05.307Z,23.50
2022-08-14T01:38:51.443Z,23.51
2022-08-14T01:41:22.889Z,23.50
2022-08-14T01:44:00.998Z,23.46
2022-08-14T01:46:37.135Z,23.50
2022-08-14T01:49:11.284Z,23.43
2022-08-14T01:51:40.989Z,23.42
2022-08-14T01:54:14.530Z,23.37
2022-08-14T01:56:42.794Z,23.43
2022-08-14T01:59:18.799Z,23.40
2022-08-14T02:01:58.623Z,23.41
2022-08-14T02:04:56.269Z,23.40
2022-08-14T02:07:34.949Z,23.27
2022-08-14T02:10:13.211Z,23.24
2022-08-14T02:12:46.183Z,23.28
2022-08-14T02:15:21.944Z,23.16
2022-08-14T02:17:49.947Z,23.12
2022-08-14T02:20:20.050Z,23.11
2022-08-14T02:22:54.834Z,23.08
2022-08-14T02:25:22.750Z,23.08
2022-08-14T02:28:24.454Z,23.06
2022-08-14T02:30:42.998Z,23.06
2022-08-14T02:33:10.799Z,23.06
2022-08-14T02:35:42.350Z,23.12
2022-08-14T02:38:11.844Z,23.16
2022-08-14T02:40:59.673Z,23.17
2022-08-14T02:43:36.797Z,23.12
2022-08-14T02:46:13.545Z,23.06
2022-08-14T02:49:04.488Z,23.05
2022-08-14T02:51:34.670Z,23.02
2022-08-14T02:54:04.976Z,22.95
2022-08-14T02:57:15.356Z,22.89
2022-08-14T02:59:21.108Z,22.78
2022-08-14T03:01:50.911Z,22.71
2022-08-14T03:04:22.631Z,22.77
2022-08-14T03:07:06.379Z,22.74
2022-08-14T03:09:42.414Z,22.72
2022-08-14T03:12:31.567Z,22.68
2022-08-14T03:15:02.730Z,22.69
2022-08-14T03:17:31.977Z,22.63
2022-08-14T03:20:11.230Z,22.64
2022-08-14T03:22:41.852Z,22.57
2022-08-14T03:25:10.770Z,22.49
2022-08-14T03:27:48.411Z,22.35
2022-08-14T03:30:39.856Z,22.32
2022-08-14T03:33:10.531Z,22.31
2022-08-14T03:35:59.759Z,22.39
2022-08-14T03:39:11.790Z,22.41
2022-08-14T03:41:19.495Z,22.24
2022-08-14T03:44:01.595Z,22.11
2022-08-14T03:46:54.762Z,22.20
2022-08-14T03:49:29.236Z,22.26
2022-08-14T03:52:00.393Z,22.33
2022-08-14T03:54:29.476Z,22.34
2022-08-14T03:57:02.490Z,22.35
2022-08-14T03:59:34.056Z,22.22
2022-08-14T04:02:04.671Z,22.21
2022-08-14T04:04:50.701Z,22.21
2022-08-14T04:07:17.439Z,22.10
2022-08-14T04:09:45.289Z,22.09
2022-08-14T04:12:13.471Z,22.12
2022-08-14T04:14:40.370Z,22.05
2022-08-14T04:17:09.911Z,21.97
2022-08-14T04:19:37.915Z,22.14
2022-08-14T04:22:04.778Z,22.25
2022-08-14T04:24:38.382Z,22.33
2022-08-14T04:27:11.817Z,22.41
2022-08-14T04:29:42.626Z,22.41
2022-08-14T04:33:02.886Z,22.46
2022-08-14T04:35:00.704Z,22.48
2022-08-14T04:37:46.322Z,22.51
2022-08-14T04:40:40.610Z,22.49
2022-08-14T04:43:38.480Z,22.47
2022-08-14T04:46:55.194Z,22.51
2022-08-14T04:48:59.902Z,22.49
2022-08-14T04:51:27.923Z,22.46
2022-08-14T04:53:56.869Z,22.46
2022-08-14T04:56:31.735Z,22.47
2022-08-14T04:59:09.906Z,22.53
2022-08-14T05:01:41.628Z,22.64
2022-08-14T05:04:16.309Z,22.76
2022-08-14T05:06:46.649Z,22.93
2022-08-14T05:09:17.259Z,23.04
2022-08-14T05:11:45.040Z,23.15
2022-08-14T05:14:16.972Z,23.22
2022-08-14T05:17:01.931Z,23.28
2022-08-14T05:19:29.998Z,23.46
2022-08-14T05:22:16.453Z,23.68
2022-08-14T05:24:49.713Z,23.93
2022-08-14T05:27:22.719Z,24.13
2022-08-14T05:29:57.137Z,24.36
2022-08-14T05:32:27.400Z,24.60
2022-08-14T05:34:58.123Z,25.01
2022-08-14T05:37:27.148Z,25.44
2022-08-14T05:39:55.115Z,25.87
2022-08-14T05:42:26.885Z,26.30
2022-08-14T05:44:56.176Z,26.70
2022-08-14T05:47:24.067Z,27.04
2022-08-14T05:49:51.662Z,26.99
2022-08-14T05:52:34.222Z,27.42
2022-08-14T05:55:08.495Z,27.80
2022-08-14T05:57:47.236Z,27.97
2022-08-14T06:00:28.393Z,28.38
2022-08-14T06:03:00.164Z,28.52
2022-08-14T06:05:28.693Z,28.67
2022-08-14T06:07:58.144Z,28.82
2022-08-14T06:10:28.145Z,29.36
2022-08-14T06:12:57.921Z,29.70
2022-08-14T06:15:30.010Z,30.06
2022-08-14T06:17:59.846Z,30.20
2022-08-14T06:20:28.652Z,30.49
2022-08-14T06:22:57.805Z,30.56
2022-08-14T06:25:27.163Z,30.87
2022-08-14T06:27:54.972Z,30.77
2022-08-14T06:30:30.458Z,30.98
2022-08-14T06:33:12.104Z,31.21
2022-08-14T06:35:42.804Z,31.93
2022-08-14T06:38:17.346Z,31.89
2022-08-14T06:40:45.105Z,32.30
2022-08-14T06:43:15.351Z,32.89
2022-08-14T06:45:43.732Z,33.10
2022-08-14T06:48:23.731Z,33.13
2022-08-14T06:50:52.758Z,32.99
2022-08-14T06:53:20.848Z,32.47
2022-08-14T06:55:56.194Z,31.32
2022-08-14T06:58:28.788Z,30.36
2022-08-14T07:01:14.765Z,29.28
2022-08-14T07:04:01.186Z,28.02
2022-08-14T07:06:46.746Z,27.63
2022-08-14T07:09:19.874Z,27.44
2022-08-14T07:11:51.691Z,27.71
2022-08-14T07:14:18.848Z,28.09
2022-08-14T07:16:45.870Z,28.57
2022-08-14T07:19:12.694Z,29.07
2022-08-14T07:21:39.651Z,29.46
2022-08-14T07:24:09.793Z,30.26
2022-08-14T07:26:49.066Z,30.61
2022-08-14T07:29:17.447Z,30.72
2022-08-14T07:31:44.880Z,30.97
2022-08-14T07:34:13.444Z,31.25
2022-08-14T07:37:01.136Z,31.34
2022-08-14T07:39:28.284Z,31.32
2022-08-14T07:41:55.164Z,31.09
2022-08-14T07:44:28.708Z,31.61
2022-08-14T07:46:56.622Z,32.02
2022-08-14T07:49:24.656Z,32.06
2022-08-14T07:51:51.404Z,32.37
2022-08-14T07:54:23.368Z,32.54
2022-08-14T07:57:11.954Z,33.18
2022-08-14T07:59:43.747Z,33.67
2022-08-14T08:02:19.116Z,34.19
2022-08-14T08:04:55.104Z,35.13
2022-08-14T08:07:30.820Z,35.72
2022-08-14T08:10:01.107Z,36.17
2022-08-14T08:12:32.169Z,36.39
2022-08-14T08:15:03.052Z,36.15
2022-08-14T08:17:42.357Z,36.52
2022-08-14T08:20:20.186Z,36.30
2022-08-14T08:22:56.029Z,36.74
2022-08-14T08:25:27.526Z,36.98
2022-08-14T08:27:59.247Z,37.12
2022-08-14T08:30:27.455Z,37.27
2022-08-14T08:32:58.149Z,38.12
2022-08-14T08:35:46.499Z,38.86
2022-08-14T08:39:18.146Z,39.31
2022-08-14T08:41:04.898Z,40.13
2022-08-14T08:43:37.001Z,41.23
2022-08-14T08:46:06.727Z,41.73
2022-08-14T08:48:54.208Z,43.16
2022-08-14T08:51:43.131Z,43.97
2022-08-14T08:54:19.920Z,43.53
2022-08-14T08:56:53.233Z,43.37
2022-08-14T08:59:31.095Z,42.15
2022-08-14T09:02:10.292Z,42.45
2022-08-14T09:04:45.356Z,42.96
2022-08-14T09:07:26.835Z,44.77
2022-08-14T09:09:59.031Z,44.34
2022-08-14T09:12:32.381Z,44.08
2022-08-14T09:15:14.124Z,44.84
2022-08-14T09:17:42.574Z,45.19
2022-08-14T09:20:12.530Z,45.40
2022-08-14T09:22:47.896Z,45.44
2022-08-14T09:25:19.916Z,45.17
2022-08-14T09:28:06.528Z,45.90
2022-08-14T09:30:37.680Z,47.08
2022-08-14T09:33:28.194Z,47.23
2022-08-14T09:36:15.582Z,47.51
2022-08-14T09:38:54.383Z,46.00
2022-08-14T09:42:21.369Z,45.67
2022-08-14T09:44:49.612Z,45.62
2022-08-14T09:47:17.301Z,46.50
2022-08-14T09:49:52.934Z,45.94
2022-08-14T09:52:33.427Z,45.45
2022-08-14T09:55:02.813Z,45.96
2022-08-14T09:57:32.333Z,46.45
2022-08-14T10:00:27.198Z,46.53
2022-08-14T10:03:05.635Z,46.40
2022-08-14T10:05:39.204Z,46.30
2022-08-14T10:08:26.322Z,45.96
2022-08-14T10:10:57.223Z,45.33
2022-08-14T10:13:43.152Z,46.15
2022-08-14T10:16:25.843Z,47.65
2022-08-14T10:19:09.405Z,49.17
2022-08-14T10:23:13.549Z,49.48
2022-08-14T10:24:37.353Z,50.79
2022-08-14T10:27:05.480Z,49.47
2022-08-14T10:29:33.680Z,46.72
2022-08-14T10:32:01.687Z,46.81
2022-08-14T10:34:40.138Z,46.05
2022-08-14T10:37:14.776Z,44.50
2022-08-14T10:39:51.179Z,45.12
2022-08-14T10:42:40.248Z,45.71
2022-08-14T10:45:25.866Z,46.42
2022-08-14T10:48:08.911Z,47.18
2022-08-14T10:50:42.405Z,46.74
2022-08-14T10:53:09.390Z,47.25
2022-08-14T10:55:45.388Z,46.85
2022-08-14T10:58:14.812Z,48.36
2022-08-14T11:00:55.485Z,48.32
2022-08-14T11:03:26.596Z,49.77
2022-08-14T11:06:19.943Z,50.34
2022-08-14T11:08:49.052Z,49.18
2022-08-14T11:11:18.597Z,50.40
2022-08-14T11:13:46.549Z,51.31
2022-08-14T11:16:15.941Z,51.72
2022-08-14T11:18:50.875Z,51.67
2022-08-14T11:21:21.938Z,51.36
2022-08-14T11:23:53.789Z,49.47
2022-08-14T11:26:27.921Z,49.19
2022-08-14T11:29:00.229Z,49.36
2022-08-14T11:31:38.800Z,49.19
2022-08-14T11:34:06.106Z,49.27
2022-08-14T11:37:02.513Z,50.25
2022-08-14T11:39:39.905Z,51.06
2022-08-14T11:43:07.844Z,51.09
2022-08-14T11:45:00.781Z,49.69
2022-08-14T11:47:35.390Z,47.76
2022-08-14T11:50:25.055Z,47.28
2022-08-14T11:53:04.522Z,45.76
2022-08-14T11:55:39.420Z,45.18
2022-08-14T11:58:09.548Z,45.56
2022-08-14T12:00:52.603Z,45.93
2022-08-14T12:03:37.436Z,45.97
2022-08-14T12:06:27.986Z,45.26
2022-08-14T12:09:00.043Z,42.50
2022-08-14T12:11:43.377Z,42.15
2022-08-14T12:14:13.462Z,42.42
2022-08-14T12:17:02.063Z,42.51
2022-08-14T12:19:33.438Z,42.26
2022-08-14T12:22:02.729Z,42.21
2022-08-14T12:24:36.270Z,42.25
2022-08-14T12:27:03.989Z,42.33
2022-08-14T12:29:31.817Z,42.88
2022-08-14T12:32:06.648Z,42.54
2022-08-14T12:34:37.233Z,42.64
2022-08-14T12:37:08.934Z,42.72
2022-08-14T12:39:39.920Z,42.79
2022-08-14T12:42:07.930Z,42.10
2022-08-14T12:44:42.642Z,41.68
2022-08-14T12:47:21.091Z,41.01
2022-08-14T12:49:49.581Z,41.07
2022-08-14T12:52:47.450Z,41.23
2022-08-14T12:55:32.521Z,41.43
2022-08-14T12:58:34.915Z,41.05
2022-08-14T13:01:17.029Z,40.98
2022-08-14T13:03:49.082Z,40.03
2022-08-14T13:06:20.406Z,40.26
2022-08-14T13:08:52.990Z,40.21
2022-08-14T13:11:23.754Z,40.26
2022-08-14T13:13:57.958Z,40.01
2022-08-14T13:16:33.614Z,39.72
2022-08-14T13:19:11.763Z,39.78
2022-08-14T13:21:58.249Z,39.97
2022-08-14T13:24:27.947Z,40.04
2022-08-14T13:26:58.254Z,40.11
2022-08-14T13:29:29.639Z,39.60
2022-08-14T13:31:58.706Z,39.64
2022-08-14T13:34:28.611Z,39.84
2022-08-14T13:37:03.900Z,40.00
2022-08-14T13:39:36.011Z,39.33
2022-08-14T13:42:08.558Z,39.57
2022-08-14T13:44:43.048Z,39.86
2022-08-14T13:47:14.852Z,39.90
2022-08-14T13:49:57.057Z,39.95
2022-08-14T13:52:52.721Z,39.41
2022-08-14T13:55:15.613Z,39.73
2022-08-14T13:57:49.732Z,39.53
2022-08-14T14:00:53.041Z,39.09
2022-08-14T14:03:23.365Z,38.66
2022-08-14T14:05:54.359Z,38.78
2022-08-14T14:08:46.022Z,38.52
2022-08-14T14:11:11.408Z,38.10
2022-08-14T14:13:41.870Z,38.18
2022-08-14T14:16:15.083Z,38.26
2022-08-14T14:18:48.860Z,38.46
2022-08-14T14:21:21.881Z,38.69
2022-08-14T14:23:49.190Z,38.51
2022-08-14T14:26:23.133Z,38.04
2022-08-14T14:28:55.319Z,37.80
2022-08-14T14:31:30.836Z,38.05
2022-08-14T14:34:07.542Z,37.91
2022-08-14T14:36:43.610Z,38.13
2022-08-14T14:39:11.121Z,38.01
2022-08-14T14:41:44.090Z,37.99
2022-08-14T14:44:13.470Z,38.21
2022-08-14T14:46:44.500Z,38.28
2022-08-14T14:49:14.419Z,37.87
2022-08-14T14:51:46.583Z,37.41
2022-08-14T14:54:31.658Z,37.39
2022-08-14T14:57:04.879Z,37.30
2022-08-14T14:59:37.434Z,37.45
2022-08-14T15:02:07.785Z,37.35
2022-08-14T15:04:37.908Z,37.51
2022-08-14T15:07:06.576Z,37.58
2022-08-14T15:09:34.470Z,37.62
2022-08-14T15:12:02.556Z,37.71
2022-08-14T15:14:55.949Z,37.51
2022-08-14T15:17:24.978Z,37.21
2022-08-14T15:19:57.068Z,36.93
2022-08-14T15:22:25.262Z,36.96
2022-08-14T15:24:52.245Z,36.90
2022-08-14T15:27:26.374Z,37.22
2022-08-14T15:29:53.855Z,37.02
2022-08-14T15:32:23.220Z,36.68
2022-08-14T15:34:51.475Z,36.80
2022-08-14T15:37:22.187Z,36.60
2022-08-14T15:39:54.689Z,36.48
2022-08-14T15:42:23.365Z,36.43
2022-08-14T15:44:56.827Z,36.40
2022-08-14T15:47:28.064Z,36.62
2022-08-14T15:50:00.281Z,36.40
2022-08-14T15:52:33.092Z,36.31
2022-08-14T15:55:08.966Z,36.41
2022-08-14T15:57:36.982Z,35.95
2022-08-14T16:00:41.839Z,36.19
2022-08-14T16:03:14.270Z,36.09
2022-08-14T16:05:43.918Z,35.61
2022-08-14T16:08:27.200Z,35.41
2022-08-14T16:10:59.988Z,35.51
2022-08-14T16:13:41.975Z,35.19
2022-08-14T16:16:48.005Z,34.86
2022-08-14T16:19:11.068Z,34.99
2022-08-14T16:21:40.718Z,34.86
2022-08-14T16:24:29.129Z,34.92
2022-08-14T16:27:00.701Z,34.73
2022-08-14T16:29:35.654Z,34.70
2022-08-14T16:32:33.630Z,34.83
2022-08-14T16:34:54.748Z,34.72
2022-08-14T16:37:30.457Z,34.59
2022-08-14T16:39:59.307Z,34.58
2022-08-14T16:43:02.843Z,34.29
2022-08-14T16:45:18.419Z,34.00
2022-08-14T16:47:47.855Z,33.89
2022-08-14T16:50:40.510Z,33.75
2022-08-14T16:53:07.197Z,33.48
2022-08-14T16:55:34.417Z,33.55
2022-08-14T16:58:21.290Z,33.47
2022-08-14T17:01:22.848Z,33.12
2022-08-14T17:04:08.581Z,33.17
2022-08-14T17:06:42.972Z,33.24
2022-08-14T17:09:45.396Z,33.26
2022-08-14T17:12:28.976Z,32.99
2022-08-14T17:15:10.139Z,32.79
2022-08-14T17:17:57.744Z,32.93
2022-08-14T17:21:01.768Z,32.58
2022-08-14T17:23:12.256Z,32.59
2022-08-14T17:25:40.618Z,32.51
2022-08-14T17:28:51.691Z,32.45
2022-08-14T17:31:12.408Z,32.38
2022-08-14T17:33:40.836Z,32.45
2022-08-14T17:36:23.898Z,32.52
2022-08-14T17:39:07.936Z,32.46
2022-08-14T17:41:43.925Z,32.36
2022-08-14T17:44:44.824Z,32.42
2022-08-14T17:47:14.552Z,31.97
2022-08-14T17:49:51.521Z,32.06
2022-08-14T17:52:35.995Z,32.07
2022-08-14T17:55:12.691Z,31.98
2022-08-14T17:57:58.541Z,31.97
2022-08-14T18:00:25.426Z,32.00
2022-08-14T18:02:54.318Z,32.00
2022-08-14T18:05:22.847Z,31.83
2022-08-14T18:07:59.900Z,31.74
2022-08-14T18:10:55.547Z,31.73
2022-08-14T18:13:49.813Z,31.68
2022-08-14T18:16:19.963Z,31.56
2022-08-14T18:18:49.774Z,31.58
2022-08-14T18:21:42.799Z,31.45
2022-08-14T18:24:28.736Z,31.43
2022-08-14T18:27:08.841Z,31.29
2022-08-14T18:29:43.955Z,31.28
2022-08-14T18:32:29.295Z,31.28
2022-08-14T18:35:00.021Z,31.13
2022-08-14T18:37:27.164Z,31.22
2022-08-14T18:40:03.224Z,31.21
2022-08-14T18:42:35.033Z,31.19
2022-08-14T18:45:02.197Z,31.10
2022-08-14T18:48:03.596Z,31.10
2022-08-14T18:50:32.374Z,31.11
2022-08-14T18:53:10.817Z,31.07
2022-08-14T18:55:53.473Z,30.96
2022-08-14T18:58:45.756Z,30.93
2022-08-14T19:01:26.407Z,30.93
2022-08-14T19:03:57.579Z,30.94
2022-08-14T19:06:40.164Z,30.95
2022-08-14T19:09:08.231Z,30.86
2022-08-14T19:11:35.156Z,30.85
2022-08-14T19:14:04.622Z,30.76
2022-08-14T19:16:43.070Z,30.76
2022-08-14T19:19:20.353Z,30.58
2022-08-14T19:21:56.177Z,30.61
2022-08-14T19:24:44.286Z,30.52
2022-08-14T19:27:23.497Z,30.55
2022-08-14T19:30:20.445Z,30.59
2022-08-14T19:32:57.064Z,30.56
2022-08-14T19:35:41.646Z,30.58
2022-08-14T19:38:51.938Z,30.57
2022-08-14T19:41:37.855Z,30.59
2022-08-14T19:44:10.224Z,30.57
2022-08-14T19:47:01.225Z,30.46
2022-08-14T19:50:08.463Z,30.46
2022-08-14T19:53:05.030Z,30.34
2022-08-14T19:55:45.618Z,30.20
2022-08-14T19:58:13.198Z,29.82
2022-08-14T20:00:52.863Z,29.82
2022-08-14T20:03:24.836Z,29.58
2022-08-14T20:06:05.633Z,29.61
2022-08-14T20:10:59.682Z,29.50
2022-08-14T20:12:00.799Z,29.51
2022-08-14T20:14:23.652Z,29.44
2022-08-14T20:17:06.340Z,29.35
2022-08-14T20:19:37.914Z,29.00
2022-08-14T20:22:36.201Z,29.19
2022-08-14T20:25:11.387Z,29.17
2022-08-14T20:27:40.845Z,29.23
2022-08-14T20:33:01.312Z,29.28
2022-08-14T20:35:35.635Z,29.34
2022-08-14T20:38:31.406Z,29.38
2022-08-14T20:41:06.907Z,29.33
2022-08-14T20:43:57.828Z,29.26
2022-08-14T20:46:30.027Z,29.23
2022-08-14T20:49:08.515Z,29.20
2022-08-14T20:51:43.643Z,29.06
2022-08-14T20:54:33.451Z,29.02
2022-08-14T20:57:14.680Z,29.11
2022-08-14T20:59:44.035Z,28.94
2022-08-14T21:02:29.327Z,28.89
2022-08-14T21:05:00.815Z,28.81
2022-08-14T21:07:36.473Z,28.82
2022-08-14T21:10:35.197Z,28.84
2022-08-14T21:13:27.278Z,28.72
2022-08-14T21:15:57.235Z,28.80
2022-08-14T21:18:32.369Z,28.77
2022-08-14T21:21:07.779Z,28.72
2022-08-14T21:23:54.492Z,28.77
2022-08-14T21:26:33.291Z,28.78
2022-08-14T21:29:14.301Z,28.55
2022-08-14T21:31:55.398Z,28.53
2022-08-14T21:34:31.537Z,28.62
2022-08-14T21:37:07.915Z,28.55
2022-08-14T21:39:36.309Z,28.25
2022-08-14T21:42:05.840Z,28.22
2022-08-14T21:44:42.878Z,28.02
2022-08-14T21:47:11.089Z,27.68
2022-08-14T21:49:38.870Z,27.62
2022-08-14T21:52:51.794Z,27.49
2022-08-14T21:55:08.890Z,27.70
2022-08-14T21:58:51.342Z,27.68
2022-08-14T22:00:42.009Z,27.48
2022-08-14T22:03:17.204Z,27.48
2022-08-14T22:05:46.455Z,27.45
2022-08-14T22:08:14.080Z,27.53
2022-08-14T22:10:44.666Z,27.44
2022-08-14T22:13:15.986Z,27.50
2022-08-14T22:15:49.576Z,27.47
2022-08-14T22:18:20.276Z,27.33
2022-08-14T22:20:53.995Z,27.33
2022-08-14T22:23:24.773Z,27.31
2022-08-14T22:25:53.509Z,27.10
2022-08-14T22:28:25.317Z,27.11
2022-08-14T22:30:55.052Z,27.13
2022-08-14T22:33:31.214Z,27.12
2022-08-14T22:36:00.445Z,26.99
2022-08-14T22:38:37.832Z,27.02
2022-08-14T22:41:27.648Z,26.83
2022-08-14T22:43:56.677Z,26.87
2022-08-14T22:46:26.327Z,26.85
2022-08-14T22:48:53.888Z,26.91
2022-08-14T22:51:26.093Z,26.76
2022-08-14T22:53:58.219Z,26.88
2022-08-14T22:56:30.090Z,26.89
2022-08-14T22:59:00.367Z,26.96
2022-08-14T23:01:57.050Z,26.93
2022-08-14T23:04:35.248Z,26.77
2022-08-14T23:07:21.651Z,26.88
2022-08-14T23:10:32.146Z,26.96
2022-08-14T23:12:54.582Z,26.75
2022-08-14T23:15:23.645Z,26.64
2022-08-14T23:17:51.175Z,26.70
2022-08-14T23:20:21.387Z,26.79
2022-08-14T23:22:52.567Z,26.77
2022-08-14T23:25:44.729Z,26.74
2022-08-14T23:28:34.939Z,26.72
2022-08-14T23:31:05.618Z,26.72
2022-08-14T23:33:34.575Z,26.80
2022-08-14T23:36:04.591Z,26.59
2022-08-14T23:38:52.421Z,26.45
2022-08-14T23:41:21.673Z,26.58
2022-08-14T23:43:54.390Z,26.63
2022-08-14T23:46:22.686Z,26.65
2022-08-14T23:49:02.225Z,26.48
2022-08-14T23:51:29.293Z,26.51
2022-08-14T23:54:05.324Z,26.57
2022-08-14T23:57:02.688Z,26.59
2022-08-14T23:59:30.205Z,26.50
